Terminal Aerodrome Forecast
Issued by NWS

Home | Current Version | Previous Version | Text Only | Print | Product List | Glossary On
Versions: 1 2 3 4 5 6 7 8 9 10 11 12 13 14 15 16
000
FTUS42 KTAE 271120
TAFABY
TAF
KABY 271120Z 2712/2812 06004KT P6SM BKN050
     FM271800 08012G18KT 4SM SHRA VCTS OVC015CB
     FM280400 08010KT 3SM SHRA OVC007=

USA.gov is the U.S. government's official web portal to all federal, state and local government web resources and services.